Viroqua, Wisconsin
Current Conditions -  °F | °C
As of 4:55 PM on Friday 28 Nov 2014 (Local Time) from KY51 Reporting Station
Broken Clouds Broken Clouds  
Wind Chill: 16°   Ceiling: 12000
Heat Index: 24°   Visibility: 10mi
Dew Point: 19°   Wind: 7mph
Humidity: 82%   Direction: 130°SE
Pressure: 29.86"   Gusts: NA
Location:  43.56°N, 90.89°W
Report Text: KY51 282255Z AUTO 13006KT 10SM SCT100 BKN120 M04/M07 A2986 RMK AO1 T10441070
Loading
Personal Weather Stations






























Interactive Weather Map New forecast layout! Learn more

10-Day Weather Forecast

Advertisements
Track Severe Weather on mobile